Terminal Aerodrome Forecast
Issued by NWS

Home | Current Version | Previous Version | Text Only | Print | Product List | Glossary On
Versions: 1 2 3 4 5 6 7 8 9 10 11 12 13 14 15 16 17 18 19
000
FTUS43 KIND 020300 AAB
TAFLAF
TAF AMD
KLAF 020355Z 0204/0224 27007KT P6SM SCT020
      TEMPO 0204/0208 BKN020 OVC150
     FM020900 31007KT P6SM SCT025 BKN150
     FM021600 05005KT P6SM SCT025 BKN150
     FM022100 10005KT P6SM OVC100
      AMD LTD TO CLD VIS AND WIND 0204/0214=

USA.gov is the U.S. government's official web portal to all federal, state and local government web resources and services.